createdAt,value
2018-04-19T00:00:21.426Z,12.07
2018-04-19T00:01:21.447Z,12.12
2018-04-19T00:02:21.468Z,11.99
2018-04-19T00:03:21.490Z,12.14
2018-04-19T00:04:21.511Z,11.99
2018-04-19T00:05:21.520Z,11.96
2018-04-19T00:06:21.541Z,12.08
2018-04-19T00:07:21.566Z,12.00
2018-04-19T00:08:21.583Z,12.02
2018-04-19T00:09:21.607Z,12.03
2018-04-19T00:10:21.629Z,12.03
2018-04-19T00:11:21.648Z,11.97
2018-04-19T00:12:21.682Z,11.91
2018-04-19T00:13:21.678Z,11.85
2018-04-19T00:14:21.700Z,11.86
2018-04-19T00:15:21.721Z,11.91
2018-04-19T00:16:21.743Z,11.86
2018-04-19T00:17:21.768Z,11.88
2018-04-19T00:18:21.784Z,11.96
2018-04-19T00:19:21.796Z,11.83
2018-04-19T00:20:21.815Z,11.95
2018-04-19T00:21:21.836Z,11.89
2018-04-19T00:22:21.858Z,11.85
2018-04-19T00:23:21.879Z,11.93
2018-04-19T00:24:21.901Z,11.85
2018-04-19T00:25:21.925Z,11.86
2018-04-19T00:26:21.943Z,11.83
2018-04-19T00:27:21.952Z,11.81
2018-04-19T00:28:21.974Z,11.78
2018-04-19T00:29:21.995Z,11.77
2018-04-19T00:30:22.018Z,11.80
2018-04-19T00:31:22.038Z,11.77
2018-04-19T00:32:22.060Z,11.88
2018-04-19T00:33:22.088Z,11.76
2018-04-19T00:34:22.092Z,11.76
2018-04-19T00:35:22.124Z,11.78
2018-04-19T00:36:22.132Z,11.76
2018-04-19T00:37:22.153Z,11.76
2018-04-19T00:38:22.175Z,11.73
2018-04-19T00:39:22.196Z,11.76
2018-04-19T00:40:22.218Z,11.67
2018-04-19T00:41:22.227Z,11.71
2018-04-19T00:42:22.251Z,11.71
2018-04-19T00:43:22.270Z,11.71
2018-04-19T00:44:22.292Z,11.71
2018-04-19T00:45:22.315Z,11.65
2018-04-19T00:46:22.335Z,11.70
2018-04-19T00:47:22.343Z,11.70
2018-04-19T00:48:22.364Z,11.68
2018-04-19T00:49:22.385Z,11.68
2018-04-19T00:50:22.409Z,11.71
2018-04-19T00:51:22.429Z,11.68
2018-04-19T00:52:22.451Z,11.68
2018-04-19T00:53:22.471Z,11.73
2018-04-19T00:54:22.480Z,11.68
2018-04-19T00:55:22.503Z,11.70
2018-04-19T00:56:22.524Z,11.73
2018-04-19T00:57:22.545Z,11.65
2018-04-19T00:58:22.567Z,11.68
2018-04-19T00:59:22.588Z,11.65
2018-04-19T01:00:22.609Z,11.70
2018-04-19T01:01:22.617Z,11.60
2018-04-19T01:02:22.639Z,11.62
2018-04-19T01:03:22.660Z,11.65
2018-04-19T01:04:22.681Z,11.60
2018-04-19T01:05:22.704Z,11.60
2018-04-19T01:06:22.737Z,11.68
2018-04-19T01:07:22.733Z,11.60
2018-04-19T01:08:22.757Z,11.62
2018-04-19T01:09:22.777Z,11.59
2018-04-19T01:10:22.837Z,11.58
2018-04-19T01:11:22.832Z,11.55
2018-04-19T01:12:22.841Z,11.58
2018-04-19T01:13:22.850Z,11.63
2018-04-19T01:14:22.869Z,11.56
2018-04-19T01:15:22.891Z,11.55
2018-04-19T01:16:22.913Z,11.53
2018-04-19T01:17:22.934Z,11.52
2018-04-19T01:18:22.957Z,11.55
2018-04-19T01:19:22.966Z,11.48
2018-04-19T01:20:22.987Z,11.52
2018-04-19T01:21:23.009Z,11.53
2018-04-19T01:22:23.029Z,11.44
2018-04-19T01:23:23.051Z,11.48
2018-04-19T01:24:23.078Z,11.49
2018-04-19T01:25:23.094Z,11.45
2018-04-19T01:26:23.101Z,11.51
2018-04-19T01:27:23.123Z,11.49
2018-04-19T01:28:23.145Z,11.49
2018-04-19T01:29:23.166Z,11.49
2018-04-19T01:30:23.189Z,11.51
2018-04-19T01:31:23.222Z,11.45
2018-04-19T01:32:23.219Z,11.49
2018-04-19T01:33:23.240Z,11.52
2018-04-19T01:34:23.263Z,11.49
2018-04-19T01:35:23.283Z,11.43
2018-04-19T01:36:23.307Z,11.44
2018-04-19T01:37:23.325Z,11.48
2018-04-19T01:38:23.334Z,11.48
2018-04-19T01:39:23.355Z,11.34
2018-04-19T01:40:23.376Z,11.38
2018-04-19T01:41:23.410Z,11.38
2018-04-19T01:42:23.418Z,11.35
2018-04-19T01:43:23.443Z,11.33
2018-04-19T01:44:23.450Z,11.34
2018-04-19T01:45:23.472Z,11.40
2018-04-19T01:46:23.492Z,11.35
2018-04-19T01:47:23.514Z,11.35
2018-04-19T01:48:23.536Z,11.38
2018-04-19T01:49:23.545Z,11.30
2018-04-19T01:50:23.565Z,11.23
2018-04-19T01:51:23.586Z,11.25
2018-04-19T01:52:23.608Z,11.19
2018-04-19T01:53:23.635Z,11.22
2018-04-19T01:54:23.666Z,11.19
2018-04-19T01:55:23.660Z,11.22
2018-04-19T01:56:23.681Z,11.26
2018-04-19T01:57:23.704Z,11.19
2018-04-19T01:58:23.725Z,11.18
2018-04-19T01:59:23.745Z,11.19
2018-04-19T02:00:23.769Z,11.16
2018-04-19T02:01:23.776Z,11.12
2018-04-19T02:02:23.796Z,11.19
2018-04-19T02:03:23.818Z,11.15
2018-04-19T02:04:23.839Z,11.10
2018-04-19T02:05:23.861Z,11.15
2018-04-19T02:06:23.870Z,11.08
2018-04-19T02:07:23.891Z,11.02
2018-04-19T02:08:23.913Z,11.08
2018-04-19T02:09:23.935Z,11.07
2018-04-19T02:10:23.956Z,11.01
2018-04-19T02:11:23.981Z,10.97
2018-04-19T02:12:23.986Z,11.00
2018-04-19T02:13:24.007Z,11.05
2018-04-19T02:14:24.032Z,10.95
2018-04-19T02:15:24.050Z,10.97
2018-04-19T02:16:24.083Z,10.95
2018-04-19T02:17:24.081Z,11.00
2018-04-19T02:18:24.101Z,11.02
2018-04-19T02:19:24.123Z,11.00
2018-04-19T02:20:24.145Z,10.94
2018-04-19T02:21:24.170Z,10.92
2018-04-19T02:22:24.175Z,10.86
2018-04-19T02:23:24.196Z,11.04
2018-04-19T02:24:24.219Z,10.87
2018-04-19T02:25:24.238Z,10.89
2018-04-19T02:26:24.260Z,10.95
2018-04-19T02:27:24.281Z,10.87
2018-04-19T02:28:24.291Z,10.92
2018-04-19T02:29:24.312Z,10.90
2018-04-19T02:30:24.335Z,10.95
2018-04-19T02:31:24.355Z,10.86
2018-04-19T02:32:24.376Z,10.77
2018-04-19T02:33:24.385Z,10.83
2018-04-19T02:34:24.410Z,10.76
2018-04-19T02:35:24.427Z,10.82
2018-04-19T02:36:24.448Z,10.80
2018-04-19T02:37:24.470Z,10.83
2018-04-19T02:38:24.480Z,10.76
2018-04-19T02:39:24.502Z,10.72
2018-04-19T02:40:24.524Z,10.79
2018-04-19T02:41:24.544Z,10.72
2018-04-19T02:42:24.565Z,10.76
2018-04-19T02:43:24.588Z,10.76
2018-04-19T02:44:24.594Z,10.71
2018-04-19T02:45:24.616Z,10.76
2018-04-19T02:46:24.637Z,10.75
2018-04-19T02:47:24.659Z,10.79
2018-04-19T02:48:24.670Z,10.72
2018-04-19T02:49:24.691Z,10.62
2018-04-19T02:50:24.737Z,10.76
2018-04-19T02:51:24.732Z,10.76
2018-04-19T02:52:24.753Z,10.67
2018-04-19T02:53:24.763Z,10.65
2018-04-19T02:54:24.783Z,10.65
2018-04-19T02:55:24.805Z,10.61
2018-04-19T02:56:24.826Z,10.58
2018-04-19T02:57:24.848Z,10.62
2018-04-19T02:58:24.858Z,10.59
2018-04-19T02:59:24.877Z,10.58
2018-04-19T03:00:24.909Z,10.57
2018-04-19T03:01:24.921Z,10.59
2018-04-19T03:02:24.943Z,10.57
2018-04-19T03:03:24.951Z,10.53
2018-04-19T03:04:24.971Z,10.49
2018-04-19T03:05:25.006Z,10.48
2018-04-19T03:06:25.014Z,10.53
2018-04-19T03:07:25.036Z,10.51
2018-04-19T03:08:25.045Z,10.45
2018-04-19T03:09:25.082Z,10.42
2018-04-19T03:10:25.089Z,10.39
2018-04-19T03:11:25.110Z,10.45
2018-04-19T03:12:25.136Z,10.42
2018-04-19T03:13:25.139Z,10.42
2018-04-19T03:14:25.160Z,10.41
2018-04-19T03:15:25.182Z,10.38
2018-04-19T03:16:25.202Z,10.42
2018-04-19T03:17:25.213Z,10.41
2018-04-19T03:18:25.233Z,10.34
2018-04-19T03:19:25.258Z,10.28
2018-04-19T03:20:25.300Z,10.34
2018-04-19T03:21:25.298Z,10.38
2018-04-19T03:22:25.306Z,10.34
2018-04-19T03:23:25.328Z,10.33
2018-04-19T03:24:25.351Z,10.38
2018-04-19T03:25:25.370Z,10.30
2018-04-19T03:26:25.392Z,10.33
2018-04-19T03:27:25.401Z,10.33
2018-04-19T03:28:25.423Z,10.30
2018-04-19T03:29:25.445Z,10.27
2018-04-19T03:30:25.466Z,10.28
2018-04-19T03:31:25.488Z,10.24
2018-04-19T03:32:25.496Z,10.27
2018-04-19T03:33:25.517Z,10.23
2018-04-19T03:34:25.573Z,10.24
2018-04-19T03:35:25.610Z,10.25
2018-04-19T03:36:25.569Z,10.20
2018-04-19T03:37:25.590Z,10.20
2018-04-19T03:38:25.613Z,10.17
2018-04-19T03:39:25.634Z,10.18
2018-04-19T03:40:25.641Z,10.17
2018-04-19T03:41:25.676Z,10.23
2018-04-19T03:42:25.687Z,10.13
2018-04-19T03:43:25.708Z,10.18
2018-04-19T03:44:25.748Z,10.15
2018-04-19T03:45:25.737Z,10.12
2018-04-19T03:46:25.762Z,10.09
2018-04-19T03:47:25.780Z,10.20
2018-04-19T03:48:25.788Z,10.18
2018-04-19T03:49:25.808Z,10.17
2018-04-19T03:50:25.831Z,10.17
2018-04-19T03:51:25.851Z,10.12
2018-04-19T03:52:25.873Z,10.12
2018-04-19T03:53:25.883Z,10.15
2018-04-19T03:54:25.904Z,10.15
2018-04-19T03:55:25.925Z,10.10
2018-04-19T03:56:25.946Z,10.13
2018-04-19T03:57:25.955Z,10.15
2018-04-19T03:58:25.979Z,10.07
2018-04-19T03:59:25.998Z,10.17
2018-04-19T04:00:26.021Z,10.18
2018-04-19T04:01:26.029Z,10.12
2018-04-19T04:02:26.062Z,10.12
2018-04-19T04:03:26.072Z,10.10
2018-04-19T04:04:26.093Z,10.12
2018-04-19T04:05:26.103Z,10.05
2018-04-19T04:06:26.123Z,10.07
2018-04-19T04:07:26.158Z,10.10
2018-04-19T04:08:26.168Z,10.09
2018-04-19T04:09:26.186Z,9.95
2018-04-19T04:10:26.206Z,10.05
2018-04-19T04:11:26.221Z,10.10
2018-04-19T04:12:26.240Z,10.05
2018-04-19T04:13:26.259Z,10.00
2018-04-19T04:14:26.274Z,9.99
2018-04-19T04:15:26.290Z,10.07
2018-04-19T04:16:26.314Z,10.07
2018-04-19T04:17:26.339Z,10.06
2018-04-19T04:18:26.343Z,10.05
2018-04-19T04:19:26.364Z,10.13
2018-04-19T04:20:26.385Z,10.07
2018-04-19T04:21:26.407Z,10.09
2018-04-19T04:22:26.416Z,10.15
2018-04-19T04:23:26.436Z,10.10
2018-04-19T04:24:26.461Z,10.07
2018-04-19T04:25:26.479Z,10.10
2018-04-19T04:26:26.489Z,10.05
2018-04-19T04:27:26.510Z,10.15
2018-04-19T04:28:26.532Z,10.18
2018-04-19T04:29:26.557Z,10.15
2018-04-19T04:30:26.574Z,10.18
2018-04-19T04:31:26.582Z,10.12
2018-04-19T04:32:26.603Z,10.10
2018-04-19T04:33:26.638Z,10.18
2018-04-19T04:34:26.647Z,10.12
2018-04-19T04:35:26.657Z,10.15
2018-04-19T04:36:26.678Z,10.12
2018-04-19T04:37:26.698Z,10.18
2018-04-19T04:38:26.720Z,10.09
2018-04-19T04:39:26.730Z,10.20
2018-04-19T04:40:26.750Z,10.15
2018-04-19T04:41:26.771Z,10.18
2018-04-19T04:42:26.796Z,10.18
2018-04-19T04:43:26.814Z,10.27
2018-04-19T04:44:26.824Z,10.25
2018-04-19T04:45:26.848Z,10.31
2018-04-19T04:46:26.866Z,10.28
2018-04-19T04:47:26.886Z,10.27
2018-04-19T04:48:26.897Z,10.34
2018-04-19T04:49:26.930Z,10.34
2018-04-19T04:50:26.938Z,10.31
2018-04-19T04:51:26.961Z,10.28
2018-04-19T04:52:26.981Z,10.39
2018-04-19T04:53:26.991Z,10.36
2018-04-19T04:54:27.012Z,10.30
2018-04-19T04:55:27.033Z,10.28
2018-04-19T04:56:27.054Z,10.41
2018-04-19T04:57:27.083Z,10.42
2018-04-19T04:58:27.084Z,10.42
2018-04-19T04:59:27.118Z,10.42
2018-04-19T05:00:27.127Z,10.57
2018-04-19T05:01:27.153Z,10.49
2018-04-19T05:02:27.169Z,10.49
2018-04-19T05:03:27.178Z,10.51
2018-04-19T05:04:27.200Z,10.57
2018-04-19T05:05:27.221Z,10.61
2018-04-19T05:06:27.251Z,10.61
2018-04-19T05:07:27.265Z,10.67
2018-04-19T05:08:27.274Z,10.65
2018-04-19T05:09:27.294Z,10.68
2018-04-19T05:10:27.316Z,10.68
2018-04-19T05:11:27.337Z,10.75
2018-04-19T05:12:27.358Z,10.75
2018-04-19T05:13:27.379Z,10.80
2018-04-19T05:14:27.401Z,10.80
2018-04-19T05:15:27.411Z,10.79
2018-04-19T05:16:27.433Z,10.86
2018-04-19T05:17:27.453Z,10.98
2018-04-19T05:18:27.474Z,11.01
2018-04-19T05:19:27.497Z,11.01
2018-04-19T05:20:27.574Z,10.97
2018-04-19T05:21:27.539Z,11.01
2018-04-19T05:22:27.548Z,11.13
2018-04-19T05:23:27.568Z,11.13
2018-04-19T05:24:27.590Z,11.16
2018-04-19T05:25:27.612Z,11.23
2018-04-19T05:26:27.625Z,11.22
2018-04-19T05:27:27.642Z,11.27
2018-04-19T05:28:27.664Z,11.35
2018-04-19T05:29:27.685Z,11.37
2018-04-19T05:30:27.709Z,11.40
2018-04-19T05:31:27.728Z,11.40
2018-04-19T05:32:27.737Z,11.45
2018-04-19T05:33:27.758Z,11.41
2018-04-19T05:34:27.781Z,11.53
2018-04-19T05:35:27.800Z,11.62
2018-04-19T05:36:27.821Z,11.55
2018-04-19T05:37:27.843Z,11.62
2018-04-19T05:38:27.865Z,11.67
2018-04-19T05:39:27.886Z,11.70
2018-04-19T05:40:27.895Z,11.76
2018-04-19T05:41:27.917Z,11.76
2018-04-19T05:42:27.941Z,11.77
2018-04-19T05:43:27.960Z,11.86
2018-04-19T05:44:27.988Z,11.86
2018-04-19T05:45:28.003Z,11.89
2018-04-19T05:46:28.025Z,11.95
2018-04-19T05:47:28.033Z,11.97
2018-04-19T05:48:28.054Z,12.07
2018-04-19T05:49:28.075Z,12.15
2018-04-19T05:50:28.096Z,12.15
2018-04-19T05:51:28.117Z,12.25
2018-04-19T05:52:28.138Z,12.20
2018-04-19T05:53:28.161Z,12.28
2018-04-19T05:54:28.185Z,12.39
2018-04-19T05:55:28.203Z,12.48
2018-04-19T05:56:28.224Z,12.45
2018-04-19T05:57:28.247Z,12.57
2018-04-19T05:58:28.255Z,12.68
2018-04-19T05:59:28.276Z,12.69
2018-04-19T06:00:28.298Z,12.69
2018-04-19T06:01:28.320Z,12.69
2018-04-19T06:02:28.341Z,12.86
2018-04-19T06:03:28.362Z,12.86
2018-04-19T06:04:28.384Z,12.98
2018-04-19T06:05:28.405Z,12.99
2018-04-19T06:06:28.426Z,13.09
2018-04-19T06:07:28.448Z,13.09
2018-04-19T06:08:28.468Z,13.30
2018-04-19T06:09:28.491Z,13.28
2018-04-19T06:10:28.511Z,13.37
2018-04-19T06:11:28.533Z,13.39
2018-04-19T06:12:28.554Z,13.55
2018-04-19T06:13:28.575Z,13.71
2018-04-19T06:14:28.597Z,13.70
2018-04-19T06:15:28.621Z,13.75
2018-04-19T06:16:28.640Z,13.86
2018-04-19T06:17:28.661Z,13.87
2018-04-19T06:18:28.683Z,13.97
2018-04-19T06:19:28.704Z,14.11
2018-04-19T06:20:28.725Z,14.18
2018-04-19T06:21:28.747Z,14.34
2018-04-19T06:22:28.769Z,14.48
2018-04-19T06:23:28.790Z,14.62
2018-04-19T06:24:28.810Z,14.77
2018-04-19T06:25:28.832Z,14.93
2018-04-19T06:26:28.854Z,15.12
2018-04-19T06:27:28.881Z,15.36
2018-04-19T06:28:28.899Z,15.55
2018-04-19T06:29:28.917Z,15.76
2018-04-19T06:30:28.940Z,16.02
2018-04-19T06:31:28.961Z,16.25
2018-04-19T06:32:28.981Z,16.34
2018-04-19T06:33:29.003Z,16.57
2018-04-19T06:34:29.025Z,16.82
2018-04-19T06:35:29.062Z,17.04
2018-04-19T06:36:29.079Z,17.19
2018-04-19T06:37:29.100Z,17.52
2018-04-19T06:38:29.122Z,17.59
2018-04-19T06:39:29.144Z,17.76
2018-04-19T06:40:29.178Z,17.98
2018-04-19T06:41:29.230Z,18.13
2018-04-19T06:42:29.220Z,18.28
2018-04-19T06:43:29.242Z,18.49
2018-04-19T06:44:29.275Z,18.73
2018-04-19T06:45:29.297Z,18.91
2018-04-19T06:46:29.319Z,19.15
2018-04-19T06:47:29.339Z,19.27
2018-04-19T06:48:29.374Z,19.35
2018-04-19T06:49:29.396Z,19.67
2018-04-19T06:50:29.423Z,19.78
2018-04-19T06:51:29.450Z,19.90
2018-04-19T06:52:29.471Z,20.12
2018-04-19T06:53:29.492Z,20.17
2018-04-19T06:54:29.527Z,20.44
2018-04-19T06:55:29.553Z,20.55
2018-04-19T06:56:29.570Z,20.75
2018-04-19T06:57:29.604Z,20.86
2018-04-19T06:58:29.628Z,21.04
2018-04-19T06:59:29.658Z,21.17
2018-04-19T07:00:29.681Z,21.20
2018-04-19T07:01:29.702Z,21.38
2018-04-19T07:02:29.735Z,21.60
2018-04-19T07:03:29.756Z,21.58
2018-04-19T07:04:29.790Z,21.66
2018-04-19T07:05:29.819Z,21.75
2018-04-19T07:06:29.864Z,21.99
2018-04-19T07:07:29.867Z,22.06
2018-04-19T07:08:29.888Z,22.08
2018-04-19T07:09:29.923Z,22.21
2018-04-19T07:10:29.945Z,22.33
2018-04-19T07:11:29.977Z,22.46
2018-04-19T07:12:30.018Z,22.58
2018-04-19T07:13:30.033Z,22.63
2018-04-19T07:14:30.062Z,22.78
2018-04-19T07:15:30.089Z,22.76
2018-04-19T07:16:30.109Z,22.92
2018-04-19T07:17:30.143Z,22.92
2018-04-19T07:18:30.166Z,22.93
2018-04-19T07:19:30.199Z,23.04
2018-04-19T07:20:30.221Z,23.14
2018-04-19T07:21:30.254Z,23.23
2018-04-19T07:22:30.287Z,23.37
2018-04-19T07:23:30.309Z,23.40
2018-04-19T07:24:30.344Z,23.55
2018-04-19T07:25:30.365Z,23.62
2018-04-19T07:26:30.398Z,23.77
2018-04-19T07:27:30.421Z,23.85
2018-04-19T07:28:30.455Z,23.82
2018-04-19T07:29:30.489Z,23.88
2018-04-19T07:30:30.508Z,23.91
2018-04-19T07:31:30.543Z,23.94
2018-04-19T07:32:30.576Z,24.06
2018-04-19T07:33:30.598Z,24.07
2018-04-19T07:34:30.632Z,24.16
2018-04-19T07:35:30.665Z,24.25
2018-04-19T07:36:30.695Z,24.40
2018-04-19T07:37:30.721Z,24.36
2018-04-19T07:38:30.743Z,24.62
2018-04-19T07:39:30.790Z,24.61
2018-04-19T07:40:30.810Z,24.61
2018-04-19T07:41:30.844Z,24.68
2018-04-19T07:42:30.865Z,24.71
2018-04-19T07:43:30.899Z,24.75
2018-04-19T07:44:30.933Z,24.77
2018-04-19T07:45:30.955Z,24.81
2018-04-19T07:46:30.988Z,24.77
2018-04-19T07:47:31.022Z,24.82
2018-04-19T07:48:31.058Z,24.81
2018-04-19T07:49:31.077Z,24.97
2018-04-19T07:50:31.111Z,24.94
2018-04-19T07:51:31.165Z,25.03
2018-04-19T07:52:31.180Z,25.15
2018-04-19T07:53:31.201Z,25.22
2018-04-19T07:54:31.240Z,25.21
2018-04-19T07:55:31.268Z,25.24
2018-04-19T07:56:31.305Z,25.22
2018-04-19T07:57:31.335Z,25.31
2018-04-19T07:58:31.358Z,25.26
2018-04-19T07:59:31.392Z,25.31
2018-04-19T08:00:31.432Z,25.36
2018-04-19T08:01:31.460Z,25.24
2018-04-19T08:02:31.492Z,25.21
2018-04-19T08:03:31.515Z,25.21
2018-04-19T08:04:31.549Z,25.09
2018-04-19T08:05:31.594Z,24.94
2018-04-19T08:06:31.616Z,24.93
2018-04-19T08:07:31.650Z,24.78
2018-04-19T08:08:31.672Z,24.68
2018-04-19T08:09:31.706Z,24.62
2018-04-19T08:10:31.739Z,24.46
2018-04-19T08:11:31.810Z,24.43
2018-04-19T08:12:31.795Z,24.36
2018-04-19T08:13:31.829Z,24.21
2018-04-19T08:14:31.863Z,24.22
2018-04-19T08:15:31.884Z,24.07
2018-04-19T08:16:31.917Z,23.91
2018-04-19T08:17:31.940Z,23.89
2018-04-19T08:18:31.974Z,23.74
2018-04-19T08:19:32.006Z,23.64
2018-04-19T08:20:32.027Z,23.51
2018-04-19T08:21:32.065Z,23.42
2018-04-19T08:22:32.087Z,23.37
2018-04-19T08:23:32.117Z,23.37
2018-04-19T08:24:32.191Z,23.16
2018-04-19T08:25:32.173Z,23.11
2018-04-19T08:26:32.206Z,22.96
2018-04-19T08:27:32.228Z,22.93
2018-04-19T08:28:32.262Z,22.96
2018-04-19T08:29:32.284Z,22.78
2018-04-19T08:30:32.317Z,22.80
2018-04-19T08:31:32.338Z,22.70
2018-04-19T08:32:32.377Z,22.65
2018-04-19T08:33:32.394Z,22.61
2018-04-19T08:34:32.428Z,22.65
2018-04-19T08:35:32.448Z,22.63
2018-04-19T08:36:32.484Z,22.59
2018-04-19T08:37:32.505Z,22.41
2018-04-19T08:38:32.539Z,22.41
2018-04-19T08:39:32.559Z,22.46
2018-04-19T08:40:32.582Z,22.51
2018-04-19T08:41:32.615Z,22.44
2018-04-19T08:42:32.636Z,22.41
2018-04-19T08:43:32.669Z,22.46
2018-04-19T08:44:32.741Z,22.43
2018-04-19T08:45:32.725Z,22.44
2018-04-19T08:46:32.747Z,22.41
2018-04-19T08:47:32.780Z,22.49
2018-04-19T08:48:32.802Z,22.46
2018-04-19T08:49:32.837Z,22.46
2018-04-19T08:50:32.857Z,22.47
2018-04-19T08:51:32.878Z,22.46
2018-04-19T08:52:32.911Z,22.46
2018-04-19T08:53:32.934Z,22.40
2018-04-19T08:54:32.971Z,22.36
2018-04-19T08:55:32.989Z,22.40
2018-04-19T08:56:33.023Z,22.40
2018-04-19T08:57:33.043Z,22.36
2018-04-19T08:58:33.066Z,22.40
2018-04-19T08:59:33.103Z,22.46
2018-04-19T09:00:33.121Z,22.37
2018-04-19T09:01:33.154Z,22.44
2018-04-19T09:02:33.178Z,22.52
2018-04-19T09:03:33.210Z,22.44
2018-04-19T09:04:33.232Z,22.37
2018-04-19T09:05:33.264Z,22.41
2018-04-19T09:06:33.289Z,22.43
2018-04-19T09:07:33.310Z,22.38
2018-04-19T09:08:33.342Z,22.43
2018-04-19T09:09:33.363Z,22.51
2018-04-19T09:10:33.396Z,22.47
2018-04-19T09:11:33.418Z,22.44
2018-04-19T09:12:33.453Z,22.43
2018-04-19T09:13:33.477Z,22.56
2018-04-19T09:14:33.497Z,22.52
2018-04-19T09:15:33.532Z,22.62
2018-04-19T09:16:33.550Z,22.65
2018-04-19T09:17:33.586Z,22.62
2018-04-19T09:18:33.606Z,22.62
2018-04-19T09:19:33.676Z,22.61
2018-04-19T09:20:33.661Z,22.65
2018-04-19T09:21:33.694Z,22.71
2018-04-19T09:22:33.717Z,22.65
2018-04-19T09:23:33.739Z,22.67
2018-04-19T09:24:33.770Z,22.76
2018-04-19T09:25:33.805Z,22.80
2018-04-19T09:26:33.829Z,22.78
2018-04-19T09:27:33.848Z,22.74
2018-04-19T09:28:33.881Z,22.76
2018-04-19T09:29:33.903Z,22.76
2018-04-19T09:30:33.938Z,22.80
2018-04-19T09:31:33.960Z,22.80
2018-04-19T09:32:33.981Z,22.81
2018-04-19T09:33:34.013Z,22.88
2018-04-19T09:34:34.037Z,22.91
2018-04-19T09:35:34.070Z,22.92
2018-04-19T09:36:34.094Z,22.92
2018-04-19T09:37:34.125Z,22.92
2018-04-19T09:38:34.144Z,22.89
2018-04-19T09:39:34.207Z,22.88
2018-04-19T09:40:34.201Z,22.98
2018-04-19T09:41:34.234Z,22.98
2018-04-19T09:42:34.255Z,23.08
2018-04-19T09:43:34.290Z,23.08
2018-04-19T09:44:34.312Z,23.16
2018-04-19T09:45:34.345Z,23.20
2018-04-19T09:46:34.397Z,23.18
2018-04-19T09:47:34.388Z,23.21
2018-04-19T09:48:34.422Z,23.25
2018-04-19T09:49:34.444Z,23.36
2018-04-19T09:50:34.476Z,23.28
2018-04-19T09:51:34.498Z,23.37
2018-04-19T09:52:34.532Z,23.33
2018-04-19T09:53:34.557Z,23.36
2018-04-19T09:54:34.586Z,23.49
2018-04-19T09:55:34.659Z,23.47
2018-04-19T09:56:34.642Z,23.49
2018-04-19T09:57:34.663Z,23.45
2018-04-19T09:58:34.735Z,23.58
2018-04-19T09:59:34.718Z,23.48
2018-04-19T10:00:34.753Z,23.59
2018-04-19T10:01:34.773Z,23.67
2018-04-19T10:02:34.807Z,23.69
2018-04-19T10:03:34.828Z,23.59
2018-04-19T10:04:34.862Z,23.67
2018-04-19T10:05:34.884Z,23.67
2018-04-19T10:06:34.920Z,23.71
2018-04-19T10:07:34.986Z,23.73
2018-04-19T10:08:34.973Z,23.84
2018-04-19T10:09:34.999Z,23.84
2018-04-19T10:10:35.031Z,23.86
2018-04-19T10:11:35.049Z,23.84
2018-04-19T10:12:35.084Z,23.94
2018-04-19T10:13:35.105Z,23.91
2018-04-19T10:14:35.139Z,23.95
2018-04-19T10:15:35.160Z,23.95
2018-04-19T10:16:35.196Z,24.04
2018-04-19T10:17:35.217Z,24.07
2018-04-19T10:18:35.263Z,24.03
2018-04-19T10:19:35.284Z,24.16
2018-04-19T10:20:35.308Z,24.29
2018-04-19T10:21:35.340Z,24.36
2018-04-19T10:22:35.373Z,24.47
2018-04-19T10:23:35.396Z,24.68
2018-04-19T10:24:35.473Z,24.68
2018-04-19T10:25:35.463Z,24.84
2018-04-19T10:26:35.496Z,25.07
2018-04-19T10:27:35.561Z,25.25
2018-04-19T10:28:35.553Z,25.33
2018-04-19T10:29:35.593Z,25.29
2018-04-19T10:30:35.621Z,25.61
2018-04-19T10:31:35.654Z,25.78
2018-04-19T10:32:35.689Z,25.85
2018-04-19T10:33:35.722Z,25.93
2018-04-19T10:34:35.758Z,26.04
2018-04-19T10:35:35.788Z,26.23
2018-04-19T10:36:35.824Z,26.26
2018-04-19T10:37:35.860Z,26.45
2018-04-19T10:38:35.892Z,26.66
2018-04-19T10:39:35.926Z,26.83
2018-04-19T10:40:35.959Z,27.05
2018-04-19T10:41:35.992Z,27.33
2018-04-19T10:42:36.026Z,27.53
2018-04-19T10:43:36.059Z,27.66
2018-04-19T10:44:36.106Z,27.76
2018-04-19T10:45:36.140Z,27.95
2018-04-19T10:46:36.174Z,28.19
2018-04-19T10:47:36.216Z,28.37
2018-04-19T10:48:36.254Z,28.37
2018-04-19T10:49:36.288Z,28.68
2018-04-19T10:50:36.322Z,28.86
2018-04-19T10:51:36.359Z,29.27
2018-04-19T10:52:36.402Z,29.42
2018-04-19T10:53:36.440Z,29.43
2018-04-19T10:54:36.484Z,29.57
2018-04-19T10:55:36.516Z,29.73
2018-04-19T10:56:36.551Z,29.74
2018-04-19T10:57:36.597Z,30.05
2018-04-19T10:58:36.630Z,30.18
2018-04-19T10:59:36.677Z,30.35
2018-04-19T11:00:36.711Z,30.33
2018-04-19T11:01:36.745Z,30.59
2018-04-19T11:02:36.792Z,30.69
2018-04-19T11:03:36.825Z,30.92
2018-04-19T11:04:36.872Z,31.04
2018-04-19T11:05:36.904Z,31.26
2018-04-19T11:06:36.952Z,31.37
2018-04-19T11:07:36.986Z,31.42
2018-04-19T11:08:37.112Z,31.44
2018-04-19T11:09:37.067Z,31.37
2018-04-19T11:10:37.112Z,31.54
2018-04-19T11:11:37.149Z,31.64
2018-04-19T11:12:37.196Z,31.64
2018-04-19T11:13:37.225Z,31.64
2018-04-19T11:14:37.273Z,31.67
2018-04-19T11:15:37.306Z,31.77
2018-04-19T11:16:37.355Z,31.92
2018-04-19T11:17:37.385Z,32.01
2018-04-19T11:18:37.431Z,32.11
2018-04-19T11:19:37.466Z,32.09
2018-04-19T11:20:37.514Z,32.20
2018-04-19T11:21:37.546Z,32.39
2018-04-19T11:22:37.594Z,32.49
2018-04-19T11:23:37.627Z,32.38
2018-04-19T11:24:37.677Z,32.44
2018-04-19T11:25:37.707Z,32.48
2018-04-19T11:26:37.753Z,32.57
2018-04-19T11:27:37.791Z,32.72
2018-04-19T11:28:37.834Z,32.97
2018-04-19T11:29:37.868Z,33.04
2018-04-19T11:30:37.913Z,33.03
2018-04-19T11:31:37.961Z,33.05
2018-04-19T11:32:37.995Z,33.12
2018-04-19T11:33:38.045Z,33.23
2018-04-19T11:34:38.073Z,33.35
2018-04-19T11:35:38.120Z,33.42
2018-04-19T11:36:38.190Z,33.44
2018-04-19T11:37:38.201Z,33.51
2018-04-19T11:38:38.246Z,33.48
2018-04-19T11:39:38.280Z,33.57
2018-04-19T11:40:38.327Z,33.66
2018-04-19T11:41:38.362Z,33.58
2018-04-19T11:42:38.408Z,33.79
2018-04-19T11:43:38.442Z,33.72
2018-04-19T11:44:38.488Z,33.84
2018-04-19T11:45:38.534Z,33.76
2018-04-19T11:46:38.568Z,33.89
2018-04-19T11:47:38.620Z,34.06
2018-04-19T11:48:38.649Z,33.95
2018-04-19T11:49:38.699Z,33.95
2018-04-19T11:50:38.740Z,34.13
2018-04-19T11:51:38.786Z,34.29
2018-04-19T11:52:38.822Z,34.26
2018-04-19T11:53:38.868Z,34.33
2018-04-19T11:54:38.900Z,34.55
2018-04-19T11:55:38.950Z,34.50
2018-04-19T11:56:38.982Z,34.51
2018-04-19T11:57:39.029Z,34.66
2018-04-19T11:58:39.076Z,34.62
2018-04-19T11:59:39.111Z,34.59
2018-04-19T12:00:39.159Z,34.62
2018-04-19T12:01:39.202Z,34.59
2018-04-19T12:02:39.237Z,34.56
2018-04-19T12:03:39.285Z,34.60
2018-04-19T12:04:39.317Z,34.62
2018-04-19T12:05:39.363Z,34.69
2018-04-19T12:06:39.409Z,34.86
2018-04-19T12:07:39.457Z,34.79
2018-04-19T12:08:39.491Z,34.75
2018-04-19T12:09:39.536Z,34.75
2018-04-19T12:10:39.572Z,34.73
2018-04-19T12:11:39.617Z,34.63
2018-04-19T12:12:39.652Z,34.62
2018-04-19T12:13:39.708Z,34.70
2018-04-19T12:14:39.744Z,34.62
2018-04-19T12:15:39.777Z,34.75
2018-04-19T12:16:39.824Z,34.60
2018-04-19T12:17:39.869Z,34.47
2018-04-19T12:18:39.905Z,34.56
2018-04-19T12:19:39.950Z,34.59
2018-04-19T12:20:39.987Z,34.82
2018-04-19T12:21:40.031Z,34.82
2018-04-19T12:22:40.066Z,34.76
2018-04-19T12:23:40.112Z,34.75
2018-04-19T12:24:40.157Z,34.66
2018-04-19T12:25:40.191Z,34.69
2018-04-19T12:26:40.278Z,34.69
2018-04-19T12:27:40.287Z,34.78
2018-04-19T12:28:40.317Z,34.58
2018-04-19T12:29:40.363Z,34.65
2018-04-19T12:30:40.397Z,34.70
2018-04-19T12:31:40.458Z,34.59
2018-04-19T12:32:40.490Z,34.60
2018-04-19T12:33:40.525Z,34.69
2018-04-19T12:34:40.571Z,34.56
2018-04-19T12:35:40.605Z,34.38
2018-04-19T12:36:40.651Z,34.59
2018-04-19T12:37:40.809Z,34.46
2018-04-19T12:38:40.733Z,34.53
2018-04-19T12:39:40.780Z,34.55
2018-04-19T12:40:40.812Z,34.53
2018-04-19T12:41:40.858Z,34.41
2018-04-19T12:42:40.893Z,34.43
2018-04-19T12:43:40.943Z,34.38
2018-04-19T12:44:40.985Z,34.04
2018-04-19T12:45:41.019Z,34.14
2018-04-19T12:46:41.065Z,33.95
2018-04-19T12:47:41.099Z,33.70
2018-04-19T12:48:41.145Z,33.53
2018-04-19T12:49:41.188Z,33.33
2018-04-19T12:50:41.226Z,33.13
2018-04-19T12:51:41.261Z,33.00
2018-04-19T12:52:41.307Z,32.72